sensor_id;sensor_type;location;lat;lon;timestamp;P1;durP1;ratioP1;P2;durP2;ratioP2
67140;SDS011;54058;52.010;5.546;2022-11-21T00:00:16;42.45;;;20.75;;
67140;SDS011;54058;52.010;5.546;2022-11-21T00:02:42;54.60;;;25.25;;
67140;SDS011;54058;52.010;5.546;2022-11-21T00:05:08;39.67;;;18.25;;
67140;SDS011;54058;52.010;5.546;2022-11-21T00:07:34;45.85;;;23.13;;
67140;SDS011;54058;52.010;5.546;2022-11-21T00:09:59;46.65;;;22.15;;
67140;SDS011;54058;52.010;5.546;2022-11-21T00:12:25;48.10;;;24.10;;
67140;SDS011;54058;52.010;5.546;2022-11-21T00:14:51;44.65;;;21.33;;
67140;SDS011;54058;52.010;5.546;2022-11-21T00:17:16;46.58;;;22.58;;
67140;SDS011;54058;52.010;5.546;2022-11-21T00:19:42;46.90;;;21.48;;
67140;SDS011;54058;52.010;5.546;2022-11-21T00:22:08;48.67;;;22.25;;
67140;SDS011;54058;52.010;5.546;2022-11-21T00:24:33;43.92;;;21.80;;
67140;SDS011;54058;52.010;5.546;2022-11-21T00:26:59;53.78;;;24.73;;
67140;SDS011;54058;52.010;5.546;2022-11-21T00:29:24;55.70;;;24.48;;
67140;SDS011;54058;52.010;5.546;2022-11-21T00:31:50;50.75;;;22.95;;
67140;SDS011;54058;52.010;5.546;2022-11-21T00:34:16;44.72;;;22.83;;
67140;SDS011;54058;52.010;5.546;2022-11-21T00:36:41;41.33;;;19.40;;
67140;SDS011;54058;52.010;5.546;2022-11-21T00:39:07;53.55;;;25.45;;
67140;SDS011;54058;52.010;5.546;2022-11-21T00:41:32;54.38;;;25.15;;
67140;SDS011;54058;52.010;5.546;2022-11-21T00:43:58;42.95;;;21.25;;
67140;SDS011;54058;52.010;5.546;2022-11-21T00:46:24;45.17;;;21.17;;
67140;SDS011;54058;52.010;5.546;2022-11-21T00:48:49;52.65;;;24.55;;
67140;SDS011;54058;52.010;5.546;2022-11-21T00:51:15;46.55;;;22.30;;
67140;SDS011;54058;52.010;5.546;2022-11-21T00:53:41;47.15;;;23.70;;
67140;SDS011;54058;52.010;5.546;2022-11-21T00:56:07;50.90;;;24.27;;
67140;SDS011;54058;52.010;5.546;2022-11-21T00:58:32;40.00;;;20.30;;
67140;SDS011;54058;52.010;5.546;2022-11-21T01:01:05;40.92;;;21.02;;
67140;SDS011;54058;52.010;5.546;2022-11-21T01:03:34;38.95;;;19.67;;
67140;SDS011;54058;52.010;5.546;2022-11-21T01:06:10;41.67;;;22.02;;
67140;SDS011;54058;52.010;5.546;2022-11-21T01:08:38;48.55;;;23.35;;
67140;SDS011;54058;52.010;5.546;2022-11-21T01:11:06;42.38;;;19.13;;
67140;SDS011;54058;52.010;5.546;2022-11-21T01:13:34;48.00;;;20.80;;
67140;SDS011;54058;52.010;5.546;2022-11-21T01:16:01;46.58;;;22.30;;
67140;SDS011;54058;52.010;5.546;2022-11-21T01:18:28;42.17;;;18.88;;
67140;SDS011;54058;52.010;5.546;2022-11-21T01:20:57;54.63;;;25.55;;
67140;SDS011;54058;52.010;5.546;2022-11-21T01:23:24;66.00;;;28.35;;
67140;SDS011;54058;52.010;5.546;2022-11-21T01:25:49;51.15;;;23.92;;
67140;SDS011;54058;52.010;5.546;2022-11-21T01:28:15;44.50;;;21.42;;
67140;SDS011;54058;52.010;5.546;2022-11-21T01:30:40;54.20;;;23.30;;
67140;SDS011;54058;52.010;5.546;2022-11-21T01:33:06;51.13;;;23.45;;
67140;SDS011;54058;52.010;5.546;2022-11-21T01:35:31;53.10;;;23.33;;
67140;SDS011;54058;52.010;5.546;2022-11-21T01:37:57;49.97;;;22.42;;
67140;SDS011;54058;52.010;5.546;2022-11-21T01:40:23;51.25;;;22.60;;
67140;SDS011;54058;52.010;5.546;2022-11-21T01:42:52;60.67;;;26.92;;
67140;SDS011;54058;52.010;5.546;2022-11-21T01:48:31;49.63;;;22.75;;
67140;SDS011;54058;52.010;5.546;2022-11-21T01:51:06;47.33;;;20.10;;
67140;SDS011;54058;52.010;5.546;2022-11-21T01:59:56;44.13;;;20.98;;
67140;SDS011;54058;52.010;5.546;2022-11-21T02:02:31;49.33;;;20.98;;
67140;SDS011;54058;52.010;5.546;2022-11-21T02:05:00;49.25;;;20.65;;
67140;SDS011;54058;52.010;5.546;2022-11-21T02:07:26;49.95;;;22.08;;
67140;SDS011;54058;52.010;5.546;2022-11-21T02:09:57;42.75;;;18.83;;
67140;SDS011;54058;52.010;5.546;2022-11-21T02:13:08;46.10;;;20.20;;
67140;SDS011;54058;52.010;5.546;2022-11-21T02:15:25;54.95;;;23.55;;
67140;SDS011;54058;52.010;5.546;2022-11-21T02:17:52;40.72;;;18.23;;
67140;SDS011;54058;52.010;5.546;2022-11-21T02:20:18;54.85;;;23.35;;
67140;SDS011;54058;52.010;5.546;2022-11-21T02:22:52;48.28;;;19.23;;
67140;SDS011;54058;52.010;5.546;2022-11-21T02:25:25;49.25;;;21.15;;
67140;SDS011;54058;52.010;5.546;2022-11-21T02:28:12;51.80;;;20.23;;
67140;SDS011;54058;52.010;5.546;2022-11-21T02:30:41;53.40;;;21.48;;
67140;SDS011;54058;52.010;5.546;2022-11-21T02:33:07;55.38;;;22.95;;
67140;SDS011;54058;52.010;5.546;2022-11-21T02:35:33;59.27;;;23.83;;
67140;SDS011;54058;52.010;5.546;2022-11-21T02:40:28;52.72;;;23.02;;
67140;SDS011;54058;52.010;5.546;2022-11-21T02:45:31;50.55;;;20.40;;
67140;SDS011;54058;52.010;5.546;2022-11-21T02:47:59;43.17;;;18.20;;
67140;SDS011;54058;52.010;5.546;2022-11-21T02:50:26;53.00;;;20.23;;
67140;SDS011;54058;52.010;5.546;2022-11-21T02:52:57;62.20;;;24.23;;
67140;SDS011;54058;52.010;5.546;2022-11-21T02:55:23;55.08;;;23.58;;
67140;SDS011;54058;52.010;5.546;2022-11-21T02:57:49;57.22;;;23.63;;
67140;SDS011;54058;52.010;5.546;2022-11-21T03:00:15;50.45;;;17.92;;
67140;SDS011;54058;52.010;5.546;2022-11-21T03:02:41;44.72;;;17.55;;
67140;SDS011;54058;52.010;5.546;2022-11-21T03:05:08;58.03;;;22.42;;
67140;SDS011;54058;52.010;5.546;2022-11-21T03:07:35;51.33;;;21.85;;
67140;SDS011;54058;52.010;5.546;2022-11-21T03:10:01;86.30;;;20.08;;
67140;SDS011;54058;52.010;5.546;2022-11-21T03:12:27;75.73;;;24.23;;
67140;SDS011;54058;52.010;5.546;2022-11-21T03:14:53;58.88;;;23.65;;
67140;SDS011;54058;52.010;5.546;2022-11-21T03:17:19;53.75;;;20.55;;
67140;SDS011;54058;52.010;5.546;2022-11-21T03:19:44;53.33;;;23.05;;
67140;SDS011;54058;52.010;5.546;2022-11-21T03:22:10;61.95;;;25.95;;
67140;SDS011;54058;52.010;5.546;2022-11-21T03:24:37;57.17;;;23.63;;
67140;SDS011;54058;52.010;5.546;2022-11-21T03:27:03;61.58;;;22.73;;
67140;SDS011;54058;52.010;5.546;2022-11-21T03:29:29;65.25;;;22.05;;
67140;SDS011;54058;52.010;5.546;2022-11-21T03:31:54;63.53;;;23.83;;
67140;SDS011;54058;52.010;5.546;2022-11-21T03:34:20;55.08;;;22.10;;
67140;SDS011;54058;52.010;5.546;2022-11-21T03:36:46;51.55;;;21.25;;
67140;SDS011;54058;52.010;5.546;2022-11-21T03:39:11;54.40;;;20.08;;
67140;SDS011;54058;52.010;5.546;2022-11-21T03:41:37;83.97;;;22.50;;
67140;SDS011;54058;52.010;5.546;2022-11-21T03:46:30;53.58;;;21.90;;
67140;SDS011;54058;52.010;5.546;2022-11-21T03:48:57;39.70;;;16.55;;
67140;SDS011;54058;52.010;5.546;2022-11-21T03:51:23;50.97;;;18.42;;
67140;SDS011;54058;52.010;5.546;2022-11-21T03:53:49;42.30;;;18.13;;
67140;SDS011;54058;52.010;5.546;2022-11-21T03:56:15;50.75;;;20.35;;
67140;SDS011;54058;52.010;5.546;2022-11-21T03:58:41;48.10;;;20.17;;
67140;SDS011;54058;52.010;5.546;2022-11-21T04:01:07;55.13;;;18.42;;
67140;SDS011;54058;52.010;5.546;2022-11-21T04:03:33;42.08;;;17.83;;
67140;SDS011;54058;52.010;5.546;2022-11-21T04:05:59;78.40;;;16.85;;
67140;SDS011;54058;52.010;5.546;2022-11-21T04:08:25;93.75;;;16.17;;
67140;SDS011;54058;52.010;5.546;2022-11-21T04:10:51;42.08;;;17.27;;
67140;SDS011;54058;52.010;5.546;2022-11-21T04:13:18;60.17;;;14.82;;
67140;SDS011;54058;52.010;5.546;2022-11-21T04:15:44;37.97;;;15.85;;
67140;SDS011;54058;52.010;5.546;2022-11-21T04:18:10;41.22;;;16.25;;
67140;SDS011;54058;52.010;5.546;2022-11-21T04:20:36;48.53;;;15.95;;
67140;SDS011;54058;52.010;5.546;2022-11-21T04:23:02;116.70;;;14.90;;
67140;SDS011;54058;52.010;5.546;2022-11-21T04:25:28;119.43;;;16.25;;
67140;SDS011;54058;52.010;5.546;2022-11-21T04:27:57;40.97;;;16.75;;
67140;SDS011;54058;52.010;5.546;2022-11-21T04:30:24;43.38;;;18.23;;
67140;SDS011;54058;52.010;5.546;2022-11-21T04:32:50;60.90;;;17.02;;
67140;SDS011;54058;52.010;5.546;2022-11-21T04:35:16;38.15;;;14.77;;
67140;SDS011;54058;52.010;5.546;2022-11-21T04:37:42;38.13;;;16.10;;
67140;SDS011;54058;52.010;5.546;2022-11-21T04:40:08;38.05;;;15.68;;
67140;SDS011;54058;52.010;5.546;2022-11-21T04:42:34;40.70;;;15.35;;
67140;SDS011;54058;52.010;5.546;2022-11-21T04:45:00;70.82;;;17.42;;
67140;SDS011;54058;52.010;5.546;2022-11-21T04:47:25;44.53;;;17.95;;
67140;SDS011;54058;52.010;5.546;2022-11-21T04:49:51;45.97;;;17.90;;
67140;SDS011;54058;52.010;5.546;2022-11-21T04:52:17;41.20;;;15.70;;
67140;SDS011;54058;52.010;5.546;2022-11-21T04:54:42;36.15;;;14.98;;
67140;SDS011;54058;52.010;5.546;2022-11-21T04:57:08;39.78;;;16.95;;
67140;SDS011;54058;52.010;5.546;2022-11-21T04:59:34;43.40;;;16.17;;
67140;SDS011;54058;52.010;5.546;2022-11-21T05:02:01;42.60;;;16.52;;
67140;SDS011;54058;52.010;5.546;2022-11-21T05:04:27;49.33;;;16.10;;
67140;SDS011;54058;52.010;5.546;2022-11-21T05:06:53;47.67;;;17.67;;
67140;SDS011;54058;52.010;5.546;2022-11-21T05:09:19;98.50;;;15.85;;
67140;SDS011;54058;52.010;5.546;2022-11-21T05:11:44;42.72;;;17.42;;
67140;SDS011;54058;52.010;5.546;2022-11-21T05:14:28;39.63;;;16.40;;
67140;SDS011;54058;52.010;5.546;2022-11-21T05:16:54;37.65;;;16.17;;
67140;SDS011;54058;52.010;5.546;2022-11-21T05:19:19;40.60;;;16.48;;
67140;SDS011;54058;52.010;5.546;2022-11-21T05:21:45;46.55;;;17.98;;
67140;SDS011;54058;52.010;5.546;2022-11-21T05:24:10;42.25;;;15.57;;
67140;SDS011;54058;52.010;5.546;2022-11-21T05:26:36;42.42;;;17.70;;
67140;SDS011;54058;52.010;5.546;2022-11-21T05:29:02;41.50;;;17.40;;
67140;SDS011;54058;52.010;5.546;2022-11-21T05:31:28;39.65;;;17.60;;
67140;SDS011;54058;52.010;5.546;2022-11-21T05:33:54;39.55;;;16.55;;
67140;SDS011;54058;52.010;5.546;2022-11-21T05:36:19;36.90;;;14.95;;
67140;SDS011;54058;52.010;5.546;2022-11-21T05:38:45;40.42;;;16.60;;
67140;SDS011;54058;52.010;5.546;2022-11-21T05:41:11;48.10;;;18.25;;
67140;SDS011;54058;52.010;5.546;2022-11-21T05:43:36;44.13;;;15.73;;
67140;SDS011;54058;52.010;5.546;2022-11-21T05:46:18;44.45;;;18.17;;
67140;SDS011;54058;52.010;5.546;2022-11-21T05:48:46;44.90;;;17.17;;
67140;SDS011;54058;52.010;5.546;2022-11-21T05:51:13;41.85;;;17.75;;
67140;SDS011;54058;52.010;5.546;2022-11-21T05:53:40;46.78;;;18.80;;
67140;SDS011;54058;52.010;5.546;2022-11-21T05:56:06;44.85;;;15.30;;
67140;SDS011;54058;52.010;5.546;2022-11-21T05:58:34;38.67;;;16.52;;
67140;SDS011;54058;52.010;5.546;2022-11-21T06:01:00;41.97;;;16.27;;
67140;SDS011;54058;52.010;5.546;2022-11-21T06:03:26;39.90;;;17.27;;
67140;SDS011;54058;52.010;5.546;2022-11-21T06:08:35;42.70;;;17.30;;
67140;SDS011;54058;52.010;5.546;2022-11-21T06:11:02;43.15;;;18.27;;
67140;SDS011;54058;52.010;5.546;2022-11-21T06:13:29;40.22;;;18.90;;
67140;SDS011;54058;52.010;5.546;2022-11-21T06:15:58;37.75;;;16.65;;
67140;SDS011;54058;52.010;5.546;2022-11-21T06:18:26;38.83;;;17.23;;
67140;SDS011;54058;52.010;5.546;2022-11-21T06:20:59;40.83;;;17.73;;
67140;SDS011;54058;52.010;5.546;2022-11-21T06:23:44;34.95;;;15.07;;
67140;SDS011;54058;52.010;5.546;2022-11-21T06:26:11;35.67;;;15.85;;
67140;SDS011;54058;52.010;5.546;2022-11-21T06:28:40;37.05;;;15.60;;
67140;SDS011;54058;52.010;5.546;2022-11-21T06:31:07;40.08;;;17.10;;
67140;SDS011;54058;52.010;5.546;2022-11-21T06:33:34;40.10;;;16.42;;
67140;SDS011;54058;52.010;5.546;2022-11-21T06:36:04;44.47;;;17.23;;
67140;SDS011;54058;52.010;5.546;2022-11-21T06:38:35;41.30;;;17.45;;
67140;SDS011;54058;52.010;5.546;2022-11-21T06:41:04;47.40;;;18.85;;
67140;SDS011;54058;52.010;5.546;2022-11-21T06:43:30;40.63;;;17.70;;
67140;SDS011;54058;52.010;5.546;2022-11-21T06:45:56;38.50;;;17.63;;
67140;SDS011;54058;52.010;5.546;2022-11-21T06:48:22;42.90;;;16.02;;
67140;SDS011;54058;52.010;5.546;2022-11-21T06:50:48;38.47;;;17.02;;
67140;SDS011;54058;52.010;5.546;2022-11-21T06:53:14;41.17;;;18.25;;
67140;SDS011;54058;52.010;5.546;2022-11-21T06:55:39;43.33;;;17.65;;
67140;SDS011;54058;52.010;5.546;2022-11-21T06:58:05;42.70;;;17.77;;
67140;SDS011;54058;52.010;5.546;2022-11-21T07:00:30;44.13;;;19.20;;
67140;SDS011;54058;52.010;5.546;2022-11-21T07:03:00;45.92;;;18.73;;
67140;SDS011;54058;52.010;5.546;2022-11-21T07:05:26;43.85;;;18.33;;
67140;SDS011;54058;52.010;5.546;2022-11-21T07:07:59;41.85;;;18.13;;
67140;SDS011;54058;52.010;5.546;2022-11-21T07:10:25;40.65;;;17.45;;
67140;SDS011;54058;52.010;5.546;2022-11-21T07:12:55;41.40;;;16.67;;
67140;SDS011;54058;52.010;5.546;2022-11-21T07:15:40;39.53;;;16.98;;
67140;SDS011;54058;52.010;5.546;2022-11-21T07:18:05;41.10;;;17.05;;
67140;SDS011;54058;52.010;5.546;2022-11-21T07:20:31;41.70;;;16.52;;
67140;SDS011;54058;52.010;5.546;2022-11-21T07:22:56;37.05;;;16.33;;
67140;SDS011;54058;52.010;5.546;2022-11-21T07:25:22;42.50;;;18.30;;
67140;SDS011;54058;52.010;5.546;2022-11-21T07:27:47;42.35;;;17.80;;
67140;SDS011;54058;52.010;5.546;2022-11-21T07:30:13;40.85;;;18.38;;
67140;SDS011;54058;52.010;5.546;2022-11-21T07:32:39;40.40;;;15.88;;
67140;SDS011;54058;52.010;5.546;2022-11-21T07:35:05;41.13;;;18.27;;
67140;SDS011;54058;52.010;5.546;2022-11-21T07:37:31;36.47;;;16.38;;
67140;SDS011;54058;52.010;5.546;2022-11-21T07:39:56;41.17;;;17.20;;
67140;SDS011;54058;52.010;5.546;2022-11-21T07:42:22;37.08;;;17.45;;
67140;SDS011;54058;52.010;5.546;2022-11-21T07:44:48;41.92;;;18.02;;
67140;SDS011;54058;52.010;5.546;2022-11-21T07:47:13;44.78;;;17.48;;
67140;SDS011;54058;52.010;5.546;2022-11-21T07:49:39;44.50;;;18.50;;
67140;SDS011;54058;52.010;5.546;2022-11-21T07:52:04;59.22;;;19.30;;
67140;SDS011;54058;52.010;5.546;2022-11-21T07:54:30;42.13;;;16.75;;
67140;SDS011;54058;52.010;5.546;2022-11-21T07:56:56;39.75;;;17.90;;
67140;SDS011;54058;52.010;5.546;2022-11-21T07:59:21;41.25;;;16.98;;
67140;SDS011;54058;52.010;5.546;2022-11-21T08:01:49;39.00;;;17.95;;
67140;SDS011;54058;52.010;5.546;2022-11-21T08:04:15;41.85;;;17.25;;
67140;SDS011;54058;52.010;5.546;2022-11-21T08:06:40;46.75;;;18.77;;
67140;SDS011;54058;52.010;5.546;2022-11-21T08:09:06;45.58;;;19.05;;
67140;SDS011;54058;52.010;5.546;2022-11-21T08:11:33;45.17;;;17.90;;
67140;SDS011;54058;52.010;5.546;2022-11-21T08:14:00;45.38;;;18.55;;
67140;SDS011;54058;52.010;5.546;2022-11-21T08:16:25;45.95;;;19.98;;
67140;SDS011;54058;52.010;5.546;2022-11-21T08:18:52;45.90;;;18.40;;
67140;SDS011;54058;52.010;5.546;2022-11-21T08:21:18;61.53;;;20.92;;
67140;SDS011;54058;52.010;5.546;2022-11-21T08:23:43;57.75;;;18.63;;
67140;SDS011;54058;52.010;5.546;2022-11-21T08:26:09;47.22;;;19.23;;
67140;SDS011;54058;52.010;5.546;2022-11-21T08:28:35;48.70;;;18.33;;
67140;SDS011;54058;52.010;5.546;2022-11-21T08:31:04;66.65;;;18.42;;
67140;SDS011;54058;52.010;5.546;2022-11-21T08:33:31;62.55;;;18.95;;
67140;SDS011;54058;52.010;5.546;2022-11-21T08:35:57;43.70;;;17.50;;
67140;SDS011;54058;52.010;5.546;2022-11-21T08:38:23;54.83;;;20.88;;
67140;SDS011;54058;52.010;5.546;2022-11-21T08:40:48;65.05;;;20.55;;
67140;SDS011;54058;52.010;5.546;2022-11-21T08:43:36;69.03;;;19.50;;
67140;SDS011;54058;52.010;5.546;2022-11-21T08:46:02;51.35;;;19.58;;
67140;SDS011;54058;52.010;5.546;2022-11-21T08:48:28;47.25;;;18.20;;
67140;SDS011;54058;52.010;5.546;2022-11-21T08:50:55;47.05;;;18.70;;
67140;SDS011;54058;52.010;5.546;2022-11-21T08:55:47;53.70;;;18.20;;
67140;SDS011;54058;52.010;5.546;2022-11-21T08:58:12;60.78;;;20.88;;
67140;SDS011;54058;52.010;5.546;2022-11-21T09:00:38;47.00;;;18.20;;
67140;SDS011;54058;52.010;5.546;2022-11-21T09:03:04;54.13;;;18.50;;
67140;SDS011;54058;52.010;5.546;2022-11-21T09:05:30;46.17;;;17.95;;
67140;SDS011;54058;52.010;5.546;2022-11-21T09:07:56;40.70;;;16.88;;
67140;SDS011;54058;52.010;5.546;2022-11-21T09:10:22;44.28;;;15.05;;
67140;SDS011;54058;52.010;5.546;2022-11-21T09:12:49;68.22;;;19.77;;
67140;SDS011;54058;52.010;5.546;2022-11-21T09:15:15;40.20;;;16.90;;
67140;SDS011;54058;52.010;5.546;2022-11-21T09:18:00;39.75;;;16.55;;
67140;SDS011;54058;52.010;5.546;2022-11-21T09:20:29;31.77;;;14.88;;
67140;SDS011;54058;52.010;5.546;2022-11-21T09:22:56;38.22;;;15.50;;
67140;SDS011;54058;52.010;5.546;2022-11-21T09:25:21;32.67;;;14.35;;
67140;SDS011;54058;52.010;5.546;2022-11-21T09:27:47;34.08;;;13.68;;
67140;SDS011;54058;52.010;5.546;2022-11-21T09:30:13;38.58;;;16.02;;
67140;SDS011;54058;52.010;5.546;2022-11-21T09:32:39;37.88;;;17.02;;
67140;SDS011;54058;52.010;5.546;2022-11-21T09:35:05;37.30;;;15.23;;
67140;SDS011;54058;52.010;5.546;2022-11-21T09:37:37;44.58;;;16.45;;
67140;SDS011;54058;52.010;5.546;2022-11-21T09:40:03;31.60;;;13.98;;
67140;SDS011;54058;52.010;5.546;2022-11-21T09:45:27;32.25;;;15.73;;
67140;SDS011;54058;52.010;5.546;2022-11-21T09:47:58;30.40;;;14.23;;
67140;SDS011;54058;52.010;5.546;2022-11-21T09:50:36;40.97;;;17.02;;
67140;SDS011;54058;52.010;5.546;2022-11-21T09:56:06;39.30;;;16.70;;
67140;SDS011;54058;52.010;5.546;2022-11-21T10:01:12;56.42;;;17.38;;
67140;SDS011;54058;52.010;5.546;2022-11-21T10:03:40;34.70;;;16.08;;
67140;SDS011;54058;52.010;5.546;2022-11-21T10:06:20;42.30;;;15.50;;
67140;SDS011;54058;52.010;5.546;2022-11-21T10:09:01;37.15;;;16.23;;
67140;SDS011;54058;52.010;5.546;2022-11-21T10:18:05;33.20;;;15.75;;
67140;SDS011;54058;52.010;5.546;2022-11-21T10:23:30;33.92;;;16.60;;
67140;SDS011;54058;52.010;5.546;2022-11-21T10:28:44;37.45;;;16.75;;
67140;SDS011;54058;52.010;5.546;2022-11-21T10:31:27;36.63;;;16.33;;
67140;SDS011;54058;52.010;5.546;2022-11-21T10:33:57;36.75;;;17.13;;
67140;SDS011;54058;52.010;5.546;2022-11-21T10:36:29;37.65;;;16.90;;
67140;SDS011;54058;52.010;5.546;2022-11-21T10:44:46;38.10;;;16.75;;
67140;SDS011;54058;52.010;5.546;2022-11-21T10:47:31;37.97;;;15.25;;
67140;SDS011;54058;52.010;5.546;2022-11-21T10:52:38;49.80;;;18.77;;
67140;SDS011;54058;52.010;5.546;2022-11-21T10:55:14;39.30;;;17.13;;
67140;SDS011;54058;52.010;5.546;2022-11-21T11:02:36;36.42;;;16.42;;
67140;SDS011;54058;52.010;5.546;2022-11-21T11:05:17;36.30;;;18.00;;
67140;SDS011;54058;52.010;5.546;2022-11-21T11:08:27;34.45;;;16.50;;
67140;SDS011;54058;52.010;5.546;2022-11-21T11:10:35;38.92;;;17.60;;
67140;SDS011;54058;52.010;5.546;2022-11-21T11:13:10;34.53;;;16.25;;
67140;SDS011;54058;52.010;5.546;2022-11-21T11:18:35;42.95;;;16.85;;
67140;SDS011;54058;52.010;5.546;2022-11-21T11:21:10;28.52;;;15.60;;
67140;SDS011;54058;52.010;5.546;2022-11-21T11:23:48;29.67;;;15.02;;
67140;SDS011;54058;52.010;5.546;2022-11-21T11:28:48;31.52;;;14.13;;
67140;SDS011;54058;52.010;5.546;2022-11-21T11:31:14;33.25;;;15.30;;
67140;SDS011;54058;52.010;5.546;2022-11-21T11:33:49;30.35;;;15.60;;
67140;SDS011;54058;52.010;5.546;2022-11-21T11:36:36;32.22;;;13.75;;
67140;SDS011;54058;52.010;5.546;2022-11-21T11:39:12;28.17;;;13.18;;
67140;SDS011;54058;52.010;5.546;2022-11-21T11:42:00;28.10;;;12.30;;
67140;SDS011;54058;52.010;5.546;2022-11-21T11:44:50;28.52;;;14.05;;
67140;SDS011;54058;52.010;5.546;2022-11-21T11:47:52;25.13;;;13.05;;
67140;SDS011;54058;52.010;5.546;2022-11-21T11:50:21;23.10;;;12.63;;
67140;SDS011;54058;52.010;5.546;2022-11-21T11:53:06;25.25;;;14.18;;
67140;SDS011;54058;52.010;5.546;2022-11-21T11:55:51;26.83;;;13.73;;
67140;SDS011;54058;52.010;5.546;2022-11-21T11:58:26;27.30;;;13.20;;
67140;SDS011;54058;52.010;5.546;2022-11-21T12:06:15;22.10;;;12.23;;
67140;SDS011;54058;52.010;5.546;2022-11-21T12:08:52;33.50;;;12.23;;
67140;SDS011;54058;52.010;5.546;2022-11-21T12:17:44;25.90;;;12.73;;
67140;SDS011;54058;52.010;5.546;2022-11-21T12:20:20;21.70;;;11.93;;
67140;SDS011;54058;52.010;5.546;2022-11-21T12:22:58;22.95;;;12.00;;
67140;SDS011;54058;52.010;5.546;2022-11-21T12:25:27;21.05;;;11.02;;
67140;SDS011;54058;52.010;5.546;2022-11-21T12:27:55;16.95;;;10.98;;
67140;SDS011;54058;52.010;5.546;2022-11-21T12:33:19;19.73;;;10.32;;
67140;SDS011;54058;52.010;5.546;2022-11-21T12:42:17;25.17;;;9.13;;
67140;SDS011;54058;52.010;5.546;2022-11-21T12:57:13;12.90;;;5.55;;
67140;SDS011;54058;52.010;5.546;2022-11-21T13:05:38;10.93;;;4.85;;
67140;SDS011;54058;52.010;5.546;2022-11-21T13:08:10;11.18;;;4.70;;
67140;SDS011;54058;52.010;5.546;2022-11-21T13:10:41;12.25;;;4.95;;
67140;SDS011;54058;52.010;5.546;2022-11-21T13:13:18;9.57;;;4.82;;
67140;SDS011;54058;52.010;5.546;2022-11-21T13:15:53;7.50;;;4.25;;
67140;SDS011;54058;52.010;5.546;2022-11-21T13:18:27;11.60;;;4.88;;
67140;SDS011;54058;52.010;5.546;2022-11-21T13:20:57;8.63;;;5.18;;
67140;SDS011;54058;52.010;5.546;2022-11-21T13:23:36;13.15;;;4.95;;
67140;SDS011;54058;52.010;5.546;2022-11-21T13:29:11;16.05;;;5.60;;
67140;SDS011;54058;52.010;5.546;2022-11-21T13:34:03;8.15;;;4.47;;
67140;SDS011;54058;52.010;5.546;2022-11-21T13:47:02;12.10;;;5.50;;
67140;SDS011;54058;52.010;5.546;2022-11-21T14:06:37;14.15;;;5.72;;
67140;SDS011;54058;52.010;5.546;2022-11-21T14:14:27;12.10;;;5.18;;
67140;SDS011;54058;52.010;5.546;2022-11-21T14:17:08;11.88;;;4.88;;
67140;SDS011;54058;52.010;5.546;2022-11-21T14:19:45;12.75;;;5.05;;
67140;SDS011;54058;52.010;5.546;2022-11-21T14:22:15;13.35;;;4.93;;
67140;SDS011;54058;52.010;5.546;2022-11-21T14:24:49;13.27;;;4.63;;
67140;SDS011;54058;52.010;5.546;2022-11-21T14:27:19;15.30;;;5.07;;
67140;SDS011;54058;52.010;5.546;2022-11-21T14:29:51;12.00;;;4.75;;
67140;SDS011;54058;52.010;5.546;2022-11-21T14:32:16;14.52;;;5.38;;
67140;SDS011;54058;52.010;5.546;2022-11-21T14:35:05;7.67;;;4.33;;
67140;SDS011;54058;52.010;5.546;2022-11-21T14:37:32;11.27;;;4.45;;
67140;SDS011;54058;52.010;5.546;2022-11-21T14:39:57;8.20;;;4.53;;
67140;SDS011;54058;52.010;5.546;2022-11-21T14:42:32;12.23;;;4.60;;
67140;SDS011;54058;52.010;5.546;2022-11-21T14:45:33;16.13;;;4.53;;
67140;SDS011;54058;52.010;5.546;2022-11-21T14:47:52;11.63;;;4.82;;
67140;SDS011;54058;52.010;5.546;2022-11-21T14:50:25;9.40;;;4.70;;
67140;SDS011;54058;52.010;5.546;2022-11-21T14:52:52;13.98;;;4.90;;
67140;SDS011;54058;52.010;5.546;2022-11-21T14:55:23;12.93;;;5.07;;
67140;SDS011;54058;52.010;5.546;2022-11-21T14:57:51;13.70;;;5.28;;
67140;SDS011;54058;52.010;5.546;2022-11-21T15:00:19;14.20;;;5.03;;
67140;SDS011;54058;52.010;5.546;2022-11-21T15:02:49;14.75;;;5.05;;
67140;SDS011;54058;52.010;5.546;2022-11-21T15:05:18;10.38;;;5.15;;
67140;SDS011;54058;52.010;5.546;2022-11-21T15:07:45;11.23;;;4.95;;
67140;SDS011;54058;52.010;5.546;2022-11-21T15:10:15;12.48;;;5.13;;
67140;SDS011;54058;52.010;5.546;2022-11-21T15:17:57;10.40;;;5.95;;
67140;SDS011;54058;52.010;5.546;2022-11-21T15:20:25;10.63;;;5.28;;
67140;SDS011;54058;52.010;5.546;2022-11-21T15:22:56;7.47;;;4.57;;
67140;SDS011;54058;52.010;5.546;2022-11-21T15:25:24;13.23;;;5.88;;
67140;SDS011;54058;52.010;5.546;2022-11-21T15:30:29;12.77;;;6.07;;
67140;SDS011;54058;52.010;5.546;2022-11-21T15:38:23;17.13;;;5.93;;
67140;SDS011;54058;52.010;5.546;2022-11-21T15:43:40;14.65;;;5.35;;
67140;SDS011;54058;52.010;5.546;2022-11-21T15:46:12;12.63;;;5.68;;
67140;SDS011;54058;52.010;5.546;2022-11-21T15:48:47;13.48;;;5.78;;
67140;SDS011;54058;52.010;5.546;2022-11-21T15:51:18;16.65;;;5.57;;
67140;SDS011;54058;52.010;5.546;2022-11-21T15:53:46;12.05;;;5.35;;
67140;SDS011;54058;52.010;5.546;2022-11-21T15:56:12;15.73;;;5.75;;
67140;SDS011;54058;52.010;5.546;2022-11-21T15:58:40;22.27;;;6.72;;
67140;SDS011;54058;52.010;5.546;2022-11-21T16:01:10;12.07;;;5.57;;
67140;SDS011;54058;52.010;5.546;2022-11-21T16:03:37;10.43;;;5.07;;
67140;SDS011;54058;52.010;5.546;2022-11-21T16:06:03;12.98;;;5.55;;
67140;SDS011;54058;52.010;5.546;2022-11-21T16:08:28;11.77;;;5.60;;
67140;SDS011;54058;52.010;5.546;2022-11-21T16:10:54;21.00;;;7.70;;
67140;SDS011;54058;52.010;5.546;2022-11-21T16:13:19;21.35;;;6.55;;
67140;SDS011;54058;52.010;5.546;2022-11-21T16:15:45;13.52;;;5.85;;
67140;SDS011;54058;52.010;5.546;2022-11-21T16:18:11;10.57;;;5.30;;
67140;SDS011;54058;52.010;5.546;2022-11-21T16:20:36;15.10;;;5.88;;
67140;SDS011;54058;52.010;5.546;2022-11-21T16:23:02;14.27;;;6.20;;
67140;SDS011;54058;52.010;5.546;2022-11-21T16:25:28;8.05;;;5.03;;
67140;SDS011;54058;52.010;5.546;2022-11-21T16:27:54;12.60;;;5.60;;
67140;SDS011;54058;52.010;5.546;2022-11-21T16:30:22;15.07;;;6.50;;
67140;SDS011;54058;52.010;5.546;2022-11-21T16:32:47;12.70;;;5.00;;
67140;SDS011;54058;52.010;5.546;2022-11-21T16:35:15;14.77;;;5.45;;
67140;SDS011;54058;52.010;5.546;2022-11-21T16:37:40;12.05;;;5.13;;
67140;SDS011;54058;52.010;5.546;2022-11-21T16:40:06;14.50;;;5.60;;
67140;SDS011;54058;52.010;5.546;2022-11-21T16:42:33;12.57;;;5.55;;
67140;SDS011;54058;52.010;5.546;2022-11-21T16:44:59;13.70;;;5.72;;
67140;SDS011;54058;52.010;5.546;2022-11-21T16:47:24;17.58;;;5.22;;
67140;SDS011;54058;52.010;5.546;2022-11-21T16:49:50;10.80;;;5.40;;
67140;SDS011;54058;52.010;5.546;2022-11-21T16:52:16;15.52;;;5.40;;
67140;SDS011;54058;52.010;5.546;2022-11-21T16:54:42;11.20;;;4.93;;
67140;SDS011;54058;52.010;5.546;2022-11-21T16:57:07;13.07;;;5.18;;
67140;SDS011;54058;52.010;5.546;2022-11-21T16:59:33;12.85;;;5.80;;
67140;SDS011;54058;52.010;5.546;2022-11-21T17:01:59;12.02;;;5.68;;
67140;SDS011;54058;52.010;5.546;2022-11-21T17:04:24;13.55;;;5.63;;
67140;SDS011;54058;52.010;5.546;2022-11-21T17:06:50;13.52;;;5.47;;